sensor_id;sensor_type;location;lat;lon;timestamp;temperature;humidity
27224;DHT22;14965;50.660;13.226;2023-05-10T00:02:36;9.90;99.90
27224;DHT22;14965;50.660;13.226;2023-05-10T00:05:32;9.90;99.90
27224;DHT22;14965;50.660;13.226;2023-05-10T00:08:18;9.90;99.90
27224;DHT22;14965;50.660;13.226;2023-05-10T00:11:13;9.90;99.90
27224;DHT22;14965;50.660;13.226;2023-05-10T00:13:40;9.80;99.90
27224;DHT22;14965;50.660;13.226;2023-05-10T00:17:08;9.80;99.90
27224;DHT22;14965;50.660;13.226;2023-05-10T00:29:12;9.70;99.90
27224;DHT22;14965;50.660;13.226;2023-05-10T00:54:41;9.40;99.90
27224;DHT22;14965;50.660;13.226;2023-05-10T01:01:43;9.30;99.90
27224;DHT22;14965;50.660;13.226;2023-05-10T01:45:27;9.00;99.90
27224;DHT22;14965;50.660;13.226;2023-05-10T01:48:55;9.00;99.90
27224;DHT22;14965;50.660;13.226;2023-05-10T02:06:31;8.80;99.90
27224;DHT22;14965;50.660;13.226;2023-05-10T02:14:52;8.70;99.90
27224;DHT22;14965;50.660;13.226;2023-05-10T02:17:19;8.70;99.90
27224;DHT22;14965;50.660;13.226;2023-05-10T02:20:08;8.70;99.90
27224;DHT22;14965;50.660;13.226;2023-05-10T02:22:38;8.60;99.90
27224;DHT22;14965;50.660;13.226;2023-05-10T02:25:07;8.60;99.90
27224;DHT22;14965;50.660;13.226;2023-05-10T02:27:43;8.50;99.90
27224;DHT22;14965;50.660;13.226;2023-05-10T02:32:59;8.50;99.90
27224;DHT22;14965;50.660;13.226;2023-05-10T02:35:27;8.60;99.90
27224;DHT22;14965;50.660;13.226;2023-05-10T02:37:56;8.60;99.90
27224;DHT22;14965;50.660;13.226;2023-05-10T02:40:24;8.50;99.90
27224;DHT22;14965;50.660;13.226;2023-05-10T02:42:55;8.50;99.90
27224;DHT22;14965;50.660;13.226;2023-05-10T02:45:26;8.40;99.90
27224;DHT22;14965;50.660;13.226;2023-05-10T02:47:54;8.40;99.90
27224;DHT22;14965;50.660;13.226;2023-05-10T02:50:22;8.40;99.90
27224;DHT22;14965;50.660;13.226;2023-05-10T02:52:56;8.30;99.90
27224;DHT22;14965;50.660;13.226;2023-05-10T02:55:30;8.30;99.90
27224;DHT22;14965;50.660;13.226;2023-05-10T02:58:00;8.30;99.90
27224;DHT22;14965;50.660;13.226;2023-05-10T03:00:28;8.20;99.90
27224;DHT22;14965;50.660;13.226;2023-05-10T03:02:54;8.20;99.90
27224;DHT22;14965;50.660;13.226;2023-05-10T03:05:20;8.20;99.90
27224;DHT22;14965;50.660;13.226;2023-05-10T03:07:47;8.20;99.90
27224;DHT22;14965;50.660;13.226;2023-05-10T03:10:15;8.20;99.90
27224;DHT22;14965;50.660;13.226;2023-05-10T03:12:56;8.20;99.90
27224;DHT22;14965;50.660;13.226;2023-05-10T03:15:40;8.10;99.90
27224;DHT22;14965;50.660;13.226;2023-05-10T03:18:20;8.10;99.90
27224;DHT22;14965;50.660;13.226;2023-05-10T03:21:11;8.10;99.90
27224;DHT22;14965;50.660;13.226;2023-05-10T03:23:41;8.10;99.90
27224;DHT22;14965;50.660;13.226;2023-05-10T03:26:21;8.10;99.90
27224;DHT22;14965;50.660;13.226;2023-05-10T03:28:50;8.10;99.90
27224;DHT22;14965;50.660;13.226;2023-05-10T03:31:46;8.20;99.90
27224;DHT22;14965;50.660;13.226;2023-05-10T03:34:12;8.00;99.90
27224;DHT22;14965;50.660;13.226;2023-05-10T03:36:38;8.00;99.90
27224;DHT22;14965;50.660;13.226;2023-05-10T03:39:21;8.00;99.90
27224;DHT22;14965;50.660;13.226;2023-05-10T03:41:51;8.00;99.90
27224;DHT22;14965;50.660;13.226;2023-05-10T03:44:17;8.00;99.90
27224;DHT22;14965;50.660;13.226;2023-05-10T03:46:43;8.10;99.90
27224;DHT22;14965;50.660;13.226;2023-05-10T03:49:11;8.10;99.90
27224;DHT22;14965;50.660;13.226;2023-05-10T03:51:37;8.10;99.90
27224;DHT22;14965;50.660;13.226;2023-05-10T03:54:03;8.10;99.90
27224;DHT22;14965;50.660;13.226;2023-05-10T03:56:29;8.10;99.90
27224;DHT22;14965;50.660;13.226;2023-05-10T03:58:56;8.20;99.90
27224;DHT22;14965;50.660;13.226;2023-05-10T04:01:22;8.20;99.90
27224;DHT22;14965;50.660;13.226;2023-05-10T04:03:48;8.20;99.90
27224;DHT22;14965;50.660;13.226;2023-05-10T04:06:19;8.20;99.90
27224;DHT22;14965;50.660;13.226;2023-05-10T04:08:50;8.30;99.90
27224;DHT22;14965;50.660;13.226;2023-05-10T04:11:16;8.30;99.90
27224;DHT22;14965;50.660;13.226;2023-05-10T04:13:43;8.40;99.90
27224;DHT22;14965;50.660;13.226;2023-05-10T04:16:17;8.50;99.90
27224;DHT22;14965;50.660;13.226;2023-05-10T04:18:46;8.50;99.90
27224;DHT22;14965;50.660;13.226;2023-05-10T04:21:13;8.60;99.90
27224;DHT22;14965;50.660;13.226;2023-05-10T04:23:39;8.60;99.90
27224;DHT22;14965;50.660;13.226;2023-05-10T04:26:15;8.70;99.90
27224;DHT22;14965;50.660;13.226;2023-05-10T04:28:51;8.90;99.90
27224;DHT22;14965;50.660;13.226;2023-05-10T04:31:18;9.40;99.90
27224;DHT22;14965;50.660;13.226;2023-05-10T04:33:54;10.40;99.90
27224;DHT22;14965;50.660;13.226;2023-05-10T04:36:29;11.80;99.90
27224;DHT22;14965;50.660;13.226;2023-05-10T04:39:01;13.30;99.90
27224;DHT22;14965;50.660;13.226;2023-05-10T04:55:29;17.10;92.40
27224;DHT22;14965;50.660;13.226;2023-05-10T04:58:03;17.20;91.10
27224;DHT22;14965;50.660;13.226;2023-05-10T05:01:07;17.50;90.30
27224;DHT22;14965;50.660;13.226;2023-05-10T05:03:35;17.50;89.00
27224;DHT22;14965;50.660;13.226;2023-05-10T05:06:07;17.80;87.40
27224;DHT22;14965;50.660;13.226;2023-05-10T05:08:50;17.60;86.50
27224;DHT22;14965;50.660;13.226;2023-05-10T05:11:31;16.90;88.20
27224;DHT22;14965;50.660;13.226;2023-05-10T05:14:05;17.20;88.20
27224;DHT22;14965;50.660;13.226;2023-05-10T05:16:36;17.40;87.40
27224;DHT22;14965;50.660;13.226;2023-05-10T05:19:14;17.40;87.30
27224;DHT22;14965;50.660;13.226;2023-05-10T05:21:59;18.10;84.80
27224;DHT22;14965;50.660;13.226;2023-05-10T05:25:06;18.70;82.70
27224;DHT22;14965;50.660;13.226;2023-05-10T05:27:45;18.70;81.30
27224;DHT22;14965;50.660;13.226;2023-05-10T05:33:01;19.10;79.60
27224;DHT22;14965;50.660;13.226;2023-05-10T05:35:36;19.60;77.40
27224;DHT22;14965;50.660;13.226;2023-05-10T05:38:16;19.70;76.50
27224;DHT22;14965;50.660;13.226;2023-05-10T05:44:32;20.30;74.80
27224;DHT22;14965;50.660;13.226;2023-05-10T05:47:25;21.20;72.70
27224;DHT22;14965;50.660;13.226;2023-05-10T05:49:51;21.90;69.10
27224;DHT22;14965;50.660;13.226;2023-05-10T05:52:19;21.70;69.00
27224;DHT22;14965;50.660;13.226;2023-05-10T05:54:53;21.60;67.70
27224;DHT22;14965;50.660;13.226;2023-05-10T05:57:25;21.50;67.70
27224;DHT22;14965;50.660;13.226;2023-05-10T06:00:07;21.10;67.90
27224;DHT22;14965;50.660;13.226;2023-05-10T06:02:59;20.80;68.70
27224;DHT22;14965;50.660;13.226;2023-05-10T06:05:38;20.20;69.20
27224;DHT22;14965;50.660;13.226;2023-05-10T06:08:05;20.10;71.00
27224;DHT22;14965;50.660;13.226;2023-05-10T06:10:44;20.00;71.40
27224;DHT22;14965;50.660;13.226;2023-05-10T06:13:13;20.10;71.10
27224;DHT22;14965;50.660;13.226;2023-05-10T06:15:41;19.50;71.80
27224;DHT22;14965;50.660;13.226;2023-05-10T06:18:14;18.90;74.10
27224;DHT22;14965;50.660;13.226;2023-05-10T06:20:46;18.40;75.40
27224;DHT22;14965;50.660;13.226;2023-05-10T06:23:21;17.80;77.80
27224;DHT22;14965;50.660;13.226;2023-05-10T06:25:50;16.90;80.10
27224;DHT22;14965;50.660;13.226;2023-05-10T06:28:19;16.20;83.90
27224;DHT22;14965;50.660;13.226;2023-05-10T06:34:58;15.40;89.30
27224;DHT22;14965;50.660;13.226;2023-05-10T06:37:40;15.10;91.40
27224;DHT22;14965;50.660;13.226;2023-05-10T06:40:09;15.00;92.10
27224;DHT22;14965;50.660;13.226;2023-05-10T06:42:59;14.80;93.50
27224;DHT22;14965;50.660;13.226;2023-05-10T06:45:49;14.80;94.00
27224;DHT22;14965;50.660;13.226;2023-05-10T06:51:28;14.90;94.30
27224;DHT22;14965;50.660;13.226;2023-05-10T06:53:54;15.00;94.80
27224;DHT22;14965;50.660;13.226;2023-05-10T06:56:20;15.00;94.60
27224;DHT22;14965;50.660;13.226;2023-05-10T06:58:48;15.10;95.10
27224;DHT22;14965;50.660;13.226;2023-05-10T07:01:14;15.10;94.90
27224;DHT22;14965;50.660;13.226;2023-05-10T07:03:40;15.20;95.30
27224;DHT22;14965;50.660;13.226;2023-05-10T07:06:11;15.10;94.80
27224;DHT22;14965;50.660;13.226;2023-05-10T07:08:53;14.90;96.00
27224;DHT22;14965;50.660;13.226;2023-05-10T07:11:19;15.00;96.10
27224;DHT22;14965;50.660;13.226;2023-05-10T07:13:45;15.20;95.80
27224;DHT22;14965;50.660;13.226;2023-05-10T07:16:12;15.20;96.90
27224;DHT22;14965;50.660;13.226;2023-05-10T07:18:37;15.30;96.20
27224;DHT22;14965;50.660;13.226;2023-05-10T07:21:03;15.60;95.60
27224;DHT22;14965;50.660;13.226;2023-05-10T07:23:29;15.60;95.60
27224;DHT22;14965;50.660;13.226;2023-05-10T07:25:57;15.90;95.30
27224;DHT22;14965;50.660;13.226;2023-05-10T07:28:23;16.30;94.50
27224;DHT22;14965;50.660;13.226;2023-05-10T07:30:49;16.40;94.10
27224;DHT22;14965;50.660;13.226;2023-05-10T07:33:15;16.50;93.10
27224;DHT22;14965;50.660;13.226;2023-05-10T07:35:41;16.50;93.20
27224;DHT22;14965;50.660;13.226;2023-05-10T07:38:08;16.30;92.80
27224;DHT22;14965;50.660;13.226;2023-05-10T07:40:33;16.40;93.40
27224;DHT22;14965;50.660;13.226;2023-05-10T07:43:01;16.50;93.30
27224;DHT22;14965;50.660;13.226;2023-05-10T07:45:27;16.50;93.40
27224;DHT22;14965;50.660;13.226;2023-05-10T07:47:53;16.40;93.20
27224;DHT22;14965;50.660;13.226;2023-05-10T07:50:19;16.20;93.80
27224;DHT22;14965;50.660;13.226;2023-05-10T07:52:44;16.10;94.30
27224;DHT22;14965;50.660;13.226;2023-05-10T07:55:10;16.00;94.20
27224;DHT22;14965;50.660;13.226;2023-05-10T07:57:37;15.90;94.30
27224;DHT22;14965;50.660;13.226;2023-05-10T08:00:06;15.70;94.60
27224;DHT22;14965;50.660;13.226;2023-05-10T08:02:35;15.60;95.60
27224;DHT22;14965;50.660;13.226;2023-05-10T08:05:05;15.60;95.40
27224;DHT22;14965;50.660;13.226;2023-05-10T08:07:47;15.50;96.20
27224;DHT22;14965;50.660;13.226;2023-05-10T08:10:25;15.40;96.80
27224;DHT22;14965;50.660;13.226;2023-05-10T08:12:51;15.40;96.60
27224;DHT22;14965;50.660;13.226;2023-05-10T08:15:22;15.50;96.80
27224;DHT22;14965;50.660;13.226;2023-05-10T08:17:48;15.50;96.50
27224;DHT22;14965;50.660;13.226;2023-05-10T08:20:14;15.60;96.80
27224;DHT22;14965;50.660;13.226;2023-05-10T08:22:41;15.80;96.50
27224;DHT22;14965;50.660;13.226;2023-05-10T08:25:09;15.80;96.40
27224;DHT22;14965;50.660;13.226;2023-05-10T08:27:35;15.90;96.60
27224;DHT22;14965;50.660;13.226;2023-05-10T08:30:01;15.90;96.30
27224;DHT22;14965;50.660;13.226;2023-05-10T08:32:29;16.00;96.70
27224;DHT22;14965;50.660;13.226;2023-05-10T08:34:55;16.30;96.10
27224;DHT22;14965;50.660;13.226;2023-05-10T08:37:22;16.40;95.20
27224;DHT22;14965;50.660;13.226;2023-05-10T08:39:48;16.50;95.50
27224;DHT22;14965;50.660;13.226;2023-05-10T08:42:16;16.30;95.10
27224;DHT22;14965;50.660;13.226;2023-05-10T08:44:48;16.20;95.30
27224;DHT22;14965;50.660;13.226;2023-05-10T08:47:16;16.00;96.00
27224;DHT22;14965;50.660;13.226;2023-05-10T08:49:47;15.90;96.20
27224;DHT22;14965;50.660;13.226;2023-05-10T08:52:15;15.90;96.30
27224;DHT22;14965;50.660;13.226;2023-05-10T08:54:42;15.80;96.20
27224;DHT22;14965;50.660;13.226;2023-05-10T08:57:09;15.80;96.60
27224;DHT22;14965;50.660;13.226;2023-05-10T08:59:36;15.90;96.70
27224;DHT22;14965;50.660;13.226;2023-05-10T09:02:02;15.80;96.40
27224;DHT22;14965;50.660;13.226;2023-05-10T09:04:30;15.90;97.20
27224;DHT22;14965;50.660;13.226;2023-05-10T09:06:58;16.00;97.30
27224;DHT22;14965;50.660;13.226;2023-05-10T09:09:25;15.90;97.20
27224;DHT22;14965;50.660;13.226;2023-05-10T09:11:53;15.80;97.00
27224;DHT22;14965;50.660;13.226;2023-05-10T09:14:20;15.70;97.30
27224;DHT22;14965;50.660;13.226;2023-05-10T09:16:46;15.40;97.80
27224;DHT22;14965;50.660;13.226;2023-05-10T09:19:13;15.20;98.50
27224;DHT22;14965;50.660;13.226;2023-05-10T09:21:39;15.20;98.90
27224;DHT22;14965;50.660;13.226;2023-05-10T09:24:07;15.10;98.90
27224;DHT22;14965;50.660;13.226;2023-05-10T09:26:58;15.00;99.00
27224;DHT22;14965;50.660;13.226;2023-05-10T09:29:40;15.10;99.70
27224;DHT22;14965;50.660;13.226;2023-05-10T09:35:52;15.30;99.30
27224;DHT22;14965;50.660;13.226;2023-05-10T09:38:18;15.40;99.30
27224;DHT22;14965;50.660;13.226;2023-05-10T09:40:52;15.60;99.40
27224;DHT22;14965;50.660;13.226;2023-05-10T09:43:39;15.70;98.60
27224;DHT22;14965;50.660;13.226;2023-05-10T09:46:15;15.90;98.70
27224;DHT22;14965;50.660;13.226;2023-05-10T09:48:43;16.10;99.30
27224;DHT22;14965;50.660;13.226;2023-05-10T09:51:19;16.10;98.90
27224;DHT22;14965;50.660;13.226;2023-05-10T09:54:09;16.30;98.40
27224;DHT22;14965;50.660;13.226;2023-05-10T09:56:45;16.50;97.80
27224;DHT22;14965;50.660;13.226;2023-05-10T09:59:12;16.30;97.10
27224;DHT22;14965;50.660;13.226;2023-05-10T10:01:38;16.40;97.70
27224;DHT22;14965;50.660;13.226;2023-05-10T10:04:09;16.50;97.90
27224;DHT22;14965;50.660;13.226;2023-05-10T10:06:58;16.60;97.60
27224;DHT22;14965;50.660;13.226;2023-05-10T10:09:26;16.60;96.70
27224;DHT22;14965;50.660;13.226;2023-05-10T10:15:50;16.70;96.80
27224;DHT22;14965;50.660;13.226;2023-05-10T10:18:48;16.70;97.10
27224;DHT22;14965;50.660;13.226;2023-05-10T10:21:21;16.90;96.80
27224;DHT22;14965;50.660;13.226;2023-05-10T10:23:50;17.00;97.50
27224;DHT22;14965;50.660;13.226;2023-05-10T10:26:53;17.20;97.50
27224;DHT22;14965;50.660;13.226;2023-05-10T10:29:23;17.20;97.70
27224;DHT22;14965;50.660;13.226;2023-05-10T10:32:25;17.30;96.60
27224;DHT22;14965;50.660;13.226;2023-05-10T10:34:55;17.40;96.80
27224;DHT22;14965;50.660;13.226;2023-05-10T10:37:22;17.20;97.80
27224;DHT22;14965;50.660;13.226;2023-05-10T10:39:48;17.10;97.10
27224;DHT22;14965;50.660;13.226;2023-05-10T10:42:44;17.00;97.80
27224;DHT22;14965;50.660;13.226;2023-05-10T10:45:13;17.20;97.70
27224;DHT22;14965;50.660;13.226;2023-05-10T10:47:42;17.50;96.90
27224;DHT22;14965;50.660;13.226;2023-05-10T10:50:11;17.70;96.70
27224;DHT22;14965;50.660;13.226;2023-05-10T10:52:58;17.70;95.70
27224;DHT22;14965;50.660;13.226;2023-05-10T10:55:45;17.70;95.30
27224;DHT22;14965;50.660;13.226;2023-05-10T10:58:29;18.00;96.00
27224;DHT22;14965;50.660;13.226;2023-05-10T11:01:34;18.10;96.10
27224;DHT22;14965;50.660;13.226;2023-05-10T11:04:27;18.00;96.00
27224;DHT22;14965;50.660;13.226;2023-05-10T11:07:19;18.10;95.60
27224;DHT22;14965;50.660;13.226;2023-05-10T11:09:51;17.90;95.70
27224;DHT22;14965;50.660;13.226;2023-05-10T11:12:17;17.60;96.70
27224;DHT22;14965;50.660;13.226;2023-05-10T11:14:50;17.60;97.50
27224;DHT22;14965;50.660;13.226;2023-05-10T11:17:27;17.40;97.70
27224;DHT22;14965;50.660;13.226;2023-05-10T11:20:07;17.10;98.60
27224;DHT22;14965;50.660;13.226;2023-05-10T11:22:49;16.70;98.80
27224;DHT22;14965;50.660;13.226;2023-05-10T11:25:17;16.50;99.90
27224;DHT22;14965;50.660;13.226;2023-05-10T11:27:43;16.30;99.90
27224;DHT22;14965;50.660;13.226;2023-05-10T11:30:13;16.10;99.90
27224;DHT22;14965;50.660;13.226;2023-05-10T11:32:40;15.80;99.90
27224;DHT22;14965;50.660;13.226;2023-05-10T11:35:07;15.70;99.90
27224;DHT22;14965;50.660;13.226;2023-05-10T11:37:37;15.60;99.90
27224;DHT22;14965;50.660;13.226;2023-05-10T11:40:05;15.60;99.90
27224;DHT22;14965;50.660;13.226;2023-05-10T11:42:36;15.70;99.90
27224;DHT22;14965;50.660;13.226;2023-05-10T11:45:10;15.60;99.90
27224;DHT22;14965;50.660;13.226;2023-05-10T11:47:36;15.70;99.90
27224;DHT22;14965;50.660;13.226;2023-05-10T11:50:10;15.80;99.90
27224;DHT22;14965;50.660;13.226;2023-05-10T11:52:39;15.90;99.90
27224;DHT22;14965;50.660;13.226;2023-05-10T11:55:08;15.90;99.90
27224;DHT22;14965;50.660;13.226;2023-05-10T11:57:38;15.90;99.90
27224;DHT22;14965;50.660;13.226;2023-05-10T12:00:06;15.70;99.90
27224;DHT22;14965;50.660;13.226;2023-05-10T12:02:35;15.50;99.90
27224;DHT22;14965;50.660;13.226;2023-05-10T12:05:01;15.50;99.90
27224;DHT22;14965;50.660;13.226;2023-05-10T12:07:33;15.30;99.90
27224;DHT22;14965;50.660;13.226;2023-05-10T12:10:06;15.20;99.90
27224;DHT22;14965;50.660;13.226;2023-05-10T12:12:43;15.00;99.90
27224;DHT22;14965;50.660;13.226;2023-05-10T12:15:18;15.00;99.90
27224;DHT22;14965;50.660;13.226;2023-05-10T12:17:47;14.90;99.90
27224;DHT22;14965;50.660;13.226;2023-05-10T12:20:14;14.70;99.90
27224;DHT22;14965;50.660;13.226;2023-05-10T12:22:45;14.70;99.90
27224;DHT22;14965;50.660;13.226;2023-05-10T12:25:30;14.70;99.90
27224;DHT22;14965;50.660;13.226;2023-05-10T12:28:08;14.80;99.90
27224;DHT22;14965;50.660;13.226;2023-05-10T12:30:37;15.00;99.90
27224;DHT22;14965;50.660;13.226;2023-05-10T12:33:08;15.00;99.90
27224;DHT22;14965;50.660;13.226;2023-05-10T12:35:46;15.00;99.90
27224;DHT22;14965;50.660;13.226;2023-05-10T12:38:27;14.90;99.90
27224;DHT22;14965;50.660;13.226;2023-05-10T12:40:55;14.90;99.90
27224;DHT22;14965;50.660;13.226;2023-05-10T12:43:22;15.00;99.90
27224;DHT22;14965;50.660;13.226;2023-05-10T12:45:48;14.90;99.90
27224;DHT22;14965;50.660;13.226;2023-05-10T12:48:14;14.90;99.90
27224;DHT22;14965;50.660;13.226;2023-05-10T12:50:41;14.90;99.90
27224;DHT22;14965;50.660;13.226;2023-05-10T12:53:07;14.90;99.90
27224;DHT22;14965;50.660;13.226;2023-05-10T12:55:33;14.90;99.90
27224;DHT22;14965;50.660;13.226;2023-05-10T12:57:59;15.00;99.90
27224;DHT22;14965;50.660;13.226;2023-05-10T13:00:26;15.10;99.90
27224;DHT22;14965;50.660;13.226;2023-05-10T13:02:52;15.10;99.90
27224;DHT22;14965;50.660;13.226;2023-05-10T13:05:18;15.20;99.90
27224;DHT22;14965;50.660;13.226;2023-05-10T13:07:47;15.20;99.90
27224;DHT22;14965;50.660;13.226;2023-05-10T13:10:16;15.20;99.90
27224;DHT22;14965;50.660;13.226;2023-05-10T13:12:45;15.30;99.90
27224;DHT22;14965;50.660;13.226;2023-05-10T13:15:11;15.30;99.90
27224;DHT22;14965;50.660;13.226;2023-05-10T13:17:42;15.30;99.90
27224;DHT22;14965;50.660;13.226;2023-05-10T13:20:11;15.40;99.90
27224;DHT22;14965;50.660;13.226;2023-05-10T13:22:37;15.40;99.90
27224;DHT22;14965;50.660;13.226;2023-05-10T13:25:03;15.30;99.90
27224;DHT22;14965;50.660;13.226;2023-05-10T13:27:35;15.30;99.90
27224;DHT22;14965;50.660;13.226;2023-05-10T13:30:06;15.20;99.90
27224;DHT22;14965;50.660;13.226;2023-05-10T13:32:32;15.10;99.90
27224;DHT22;14965;50.660;13.226;2023-05-10T13:35:00;15.00;99.90
27224;DHT22;14965;50.660;13.226;2023-05-10T13:37:27;15.10;99.90
27224;DHT22;14965;50.660;13.226;2023-05-10T13:39:52;15.00;99.90
27224;DHT22;14965;50.660;13.226;2023-05-10T13:42:18;15.00;99.90
27224;DHT22;14965;50.660;13.226;2023-05-10T13:44:44;15.00;99.90
27224;DHT22;14965;50.660;13.226;2023-05-10T13:47:10;14.90;99.90
27224;DHT22;14965;50.660;13.226;2023-05-10T13:49:36;14.80;99.90
27224;DHT22;14965;50.660;13.226;2023-05-10T13:52:03;14.80;99.90
27224;DHT22;14965;50.660;13.226;2023-05-10T13:54:29;14.80;99.90
27224;DHT22;14965;50.660;13.226;2023-05-10T13:56:55;14.70;99.90
27224;DHT22;14965;50.660;13.226;2023-05-10T13:59:21;14.70;99.90
27224;DHT22;14965;50.660;13.226;2023-05-10T14:01:47;14.70;99.90
27224;DHT22;14965;50.660;13.226;2023-05-10T14:04:12;14.80;99.90
27224;DHT22;14965;50.660;13.226;2023-05-10T14:06:38;14.80;99.90
27224;DHT22;14965;50.660;13.226;2023-05-10T14:09:05;14.90;99.90
27224;DHT22;14965;50.660;13.226;2023-05-10T14:11:31;14.90;99.90
27224;DHT22;14965;50.660;13.226;2023-05-10T14:13:57;14.90;99.90
27224;DHT22;14965;50.660;13.226;2023-05-10T14:16:23;14.80;99.90
27224;DHT22;14965;50.660;13.226;2023-05-10T14:18:49;14.80;99.90
27224;DHT22;14965;50.660;13.226;2023-05-10T14:21:14;14.80;99.90
27224;DHT22;14965;50.660;13.226;2023-05-10T14:23:40;14.80;99.90
27224;DHT22;14965;50.660;13.226;2023-05-10T14:26:08;14.70;99.90
27224;DHT22;14965;50.660;13.226;2023-05-10T14:28:33;14.70;99.90
27224;DHT22;14965;50.660;13.226;2023-05-10T14:30:59;14.60;99.90
27224;DHT22;14965;50.660;13.226;2023-05-10T14:33:25;14.60;99.90
27224;DHT22;14965;50.660;13.226;2023-05-10T14:35:51;14.50;99.90
27224;DHT22;14965;50.660;13.226;2023-05-10T14:38:17;14.50;99.90
27224;DHT22;14965;50.660;13.226;2023-05-10T14:40:43;14.50;99.90
27224;DHT22;14965;50.660;13.226;2023-05-10T14:43:10;14.50;99.90
27224;DHT22;14965;50.660;13.226;2023-05-10T14:45:36;14.50;99.90
27224;DHT22;14965;50.660;13.226;2023-05-10T14:48:02;14.50;99.90
27224;DHT22;14965;50.660;13.226;2023-05-10T14:50:28;14.40;99.90
27224;DHT22;14965;50.660;13.226;2023-05-10T14:52:53;14.40;99.90
27224;DHT22;14965;50.660;13.226;2023-05-10T14:55:19;14.40;99.90
27224;DHT22;14965;50.660;13.226;2023-05-10T14:57:45;14.40;99.90
27224;DHT22;14965;50.660;13.226;2023-05-10T15:00:13;14.40;99.90
27224;DHT22;14965;50.660;13.226;2023-05-10T15:02:40;14.40;99.90
27224;DHT22;14965;50.660;13.226;2023-05-10T15:05:06;14.30;99.90
27224;DHT22;14965;50.660;13.226;2023-05-10T15:07:32;14.30;99.90
27224;DHT22;14965;50.660;13.226;2023-05-10T15:09:58;14.30;99.90
27224;DHT22;14965;50.660;13.226;2023-05-10T15:12:24;14.30;99.90
27224;DHT22;14965;50.660;13.226;2023-05-10T15:14:50;14.30;99.90
27224;DHT22;14965;50.660;13.226;2023-05-10T15:17:17;14.30;99.90
27224;DHT22;14965;50.660;13.226;2023-05-10T15:19:43;14.20;99.90
27224;DHT22;14965;50.660;13.226;2023-05-10T15:22:09;14.20;99.90
27224;DHT22;14965;50.660;13.226;2023-05-10T15:24:34;14.20;99.90
27224;DHT22;14965;50.660;13.226;2023-05-10T15:27:00;14.10;99.90
27224;DHT22;14965;50.660;13.226;2023-05-10T15:29:26;14.20;99.90
27224;DHT22;14965;50.660;13.226;2023-05-10T15:31:52;14.20;99.90
27224;DHT22;14965;50.660;13.226;2023-05-10T15:34:19;14.20;99.90
27224;DHT22;14965;50.660;13.226;2023-05-10T15:36:45;14.30;99.90
27224;DHT22;14965;50.660;13.226;2023-05-10T15:39:11;14.30;99.90
27224;DHT22;14965;50.660;13.226;2023-05-10T15:41:37;14.30;99.90
27224;DHT22;14965;50.660;13.226;2023-05-10T15:44:03;14.30;99.90
27224;DHT22;14965;50.660;13.226;2023-05-10T15:46:30;14.30;99.90
27224;DHT22;14965;50.660;13.226;2023-05-10T15:48:56;14.30;99.90
27224;DHT22;14965;50.660;13.226;2023-05-10T15:51:24;14.20;99.90
27224;DHT22;14965;50.660;13.226;2023-05-10T15:53:50;14.20;99.90
27224;DHT22;14965;50.660;13.226;2023-05-10T15:56:16;14.20;99.90
27224;DHT22;14965;50.660;13.226;2023-05-10T15:58:42;14.20;99.90
27224;DHT22;14965;50.660;13.226;2023-05-10T16:01:09;14.20;99.90
27224;DHT22;14965;50.660;13.226;2023-05-10T16:03:35;14.20;99.90
27224;DHT22;14965;50.660;13.226;2023-05-10T16:06:01;14.30;99.90
27224;DHT22;14965;50.660;13.226;2023-05-10T16:08:28;14.30;99.90
27224;DHT22;14965;50.660;13.226;2023-05-10T16:10:54;14.20;99.90
27224;DHT22;14965;50.660;13.226;2023-05-10T16:13:23;14.20;99.90
27224;DHT22;14965;50.660;13.226;2023-05-10T16:15:49;14.20;99.90
27224;DHT22;14965;50.660;13.226;2023-05-10T16:18:15;14.10;99.90
27224;DHT22;14965;50.660;13.226;2023-05-10T16:20:40;14.10;99.90
27224;DHT22;14965;50.660;13.226;2023-05-10T16:23:07;14.10;99.90
27224;DHT22;14965;50.660;13.226;2023-05-10T16:25:34;14.10;99.90
27224;DHT22;14965;50.660;13.226;2023-05-10T16:28:00;14.10;99.90
27224;DHT22;14965;50.660;13.226;2023-05-10T16:30:26;14.10;99.90
27224;DHT22;14965;50.660;13.226;2023-05-10T16:32:52;14.10;99.90
27224;DHT22;14965;50.660;13.226;2023-05-10T16:35:19;14.00;99.90
27224;DHT22;14965;50.660;13.226;2023-05-10T16:37:45;14.00;99.90
27224;DHT22;14965;50.660;13.226;2023-05-10T16:40:11;14.00;99.90
27224;DHT22;14965;50.660;13.226;2023-05-10T16:42:39;14.00;99.90
27224;DHT22;14965;50.660;13.226;2023-05-10T16:45:06;14.00;99.90
27224;DHT22;14965;50.660;13.226;2023-05-10T16:47:32;14.00;99.90
27224;DHT22;14965;50.660;13.226;2023-05-10T16:49:59;14.00;99.90
27224;DHT22;14965;50.660;13.226;2023-05-10T16:52:25;14.00;99.90
27224;DHT22;14965;50.660;13.226;2023-05-10T16:54:53;14.00;99.90
27224;DHT22;14965;50.660;13.226;2023-05-10T16:57:19;14.00;99.90
27224;DHT22;14965;50.660;13.226;2023-05-10T16:59:46;14.00;99.90
27224;DHT22;14965;50.660;13.226;2023-05-10T17:02:13;14.00;99.90
27224;DHT22;14965;50.660;13.226;2023-05-10T17:04:39;13.80;99.90
27224;DHT22;14965;50.660;13.226;2023-05-10T17:07:05;13.70;99.90
27224;DHT22;14965;50.660;13.226;2023-05-10T17:09:31;13.70;99.90
27224;DHT22;14965;50.660;13.226;2023-05-10T17:11:57;13.70;99.90
27224;DHT22;14965;50.660;13.226;2023-05-10T17:14:23;13.70;99.90
27224;DHT22;14965;50.660;13.226;2023-05-10T17:16:50;13.70;99.90
27224;DHT22;14965;50.660;13.226;2023-05-10T17:19:16;13.60;99.90
27224;DHT22;14965;50.660;13.226;2023-05-10T17:21:42;13.60;99.90
27224;DHT22;14965;50.660;13.226;2023-05-10T17:24:08;13.60;99.90
27224;DHT22;14965;50.660;13.226;2023-05-10T17:26:34;13.50;99.90
27224;DHT22;14965;50.660;13.226;2023-05-10T17:29:00;13.60;99.90
27224;DHT22;14965;50.660;13.226;2023-05-10T17:31:26;13.60;99.90
27224;DHT22;14965;50.660;13.226;2023-05-10T17:33:53;13.60;99.90
27224;DHT22;14965;50.660;13.226;2023-05-10T17:36:19;13.60;99.90
27224;DHT22;14965;50.660;13.226;2023-05-10T17:38:45;13.50;99.90
27224;DHT22;14965;50.660;13.226;2023-05-10T17:41:12;13.50;99.90
27224;DHT22;14965;50.660;13.226;2023-05-10T17:43:38;13.40;99.90
27224;DHT22;14965;50.660;13.226;2023-05-10T17:46:06;13.40;99.90
27224;DHT22;14965;50.660;13.226;2023-05-10T17:48:32;13.30;99.90
27224;DHT22;14965;50.660;13.226;2023-05-10T17:50:59;13.30;99.90
27224;DHT22;14965;50.660;13.226;2023-05-10T17:53:28;13.30;99.90
27224;DHT22;14965;50.660;13.226;2023-05-10T17:55:54;13.30;99.90
27224;DHT22;14965;50.660;13.226;2023-05-10T17:58:20;13.30;99.90